Time;durP1;ratioP1;P1;durP2;ratioP2;P2;SDS_P1;SDS_P2;PMS_P1;PMS_P2;Temp;Humidity;BMP_temperature;BMP_pressure;BME280_temperature;BME280_humidity;BME280_pressure;Samples;Min_cycle;Max_cycle;Signal;HPM_P1;HPM_P2
2021/11/10 00:03:33;;;;;;;;;;;16.20;41.30;;;;;;8366539;28;20296;-49
2021/11/10 00:07:33;;;;;;;;;;;16.20;40.80;;;;;;8366418;28;19917;-52
2021/11/10 00:11:34;;;;;;;;;;;16.20;40.90;;;;;;8366013;28;20366;-49
2021/11/10 00:15:36;;;;;;;;;;;16.20;40.90;;;;;;8365666;28;20157;-49
2021/11/10 00:19:36;;;;;;;;;;;16.10;40.80;;;;;;8365864;28;19923;-47
2021/11/10 00:23:37;;;;;;;;;;;16.10;40.80;;;;;;8365133;28;19952;-49
2021/11/10 00:27:37;;;;;;;;;;;16.20;40.80;;;;;;8365813;28;20058;-49
2021/11/10 00:31:38;;;;;;;;;;;16.20;40.70;;;;;;8365850;28;20451;-48
2021/11/10 00:35:39;;;;;;;;;;;16.20;40.80;;;;;;8364770;28;19916;-48
2021/11/10 00:39:39;;;;;;;;;;;16.20;40.70;;;;;;8363802;28;19917;-50
2021/11/10 00:43:40;;;;;;;;;;;16.20;40.70;;;;;;8365353;28;19916;-48
2021/11/10 00:47:40;;;;;;;;;;;16.20;40.70;;;;;;8364655;28;19966;-48
2021/11/10 00:51:41;;;;;;;;;;;16.20;40.70;;;;;;8365137;28;19913;-51
2021/11/10 00:55:42;;;;;;;;;;;16.20;40.60;;;;;;8364651;28;19920;-48
2021/11/10 00:59:42;;;;;;;;;;;16.20;40.60;;;;;;8364192;28;21044;-49
2021/11/10 01:03:43;;;;;;;;;;;16.20;40.60;;;;;;8364595;28;19925;-51
2021/11/10 01:07:43;;;;;;;;;;;16.10;40.60;;;;;;8364437;28;19920;-51
2021/11/10 01:11:47;;;;;;;;;;;16.20;40.60;;;;;;8364099;28;19913;-49
2021/11/10 01:15:48;;;;;;;;;;;16.10;40.60;;;;;;8364224;28;19917;-47
2021/11/10 01:19:49;;;;;;;;;;;16.20;40.60;;;;;;8363994;28;19921;-48
2021/11/10 01:23:50;;;;;;;;;;;16.10;40.60;;;;;;8363594;28;19932;-49
2021/11/10 01:27:50;;;;;;;;;;;16.10;40.60;;;;;;8363761;28;19921;-47
2021/11/10 01:31:51;;;;;;;;;;;16.10;40.70;;;;;;8363866;28;20574;-48
2021/11/10 01:35:51;;;;;;;;;;;16.10;40.70;;;;;;8363217;28;19928;-48
2021/11/10 01:39:52;;;;;;;;;;;16.10;40.70;;;;;;8363800;28;19917;-48
2021/11/10 01:43:52;;;;;;;;;;;16.10;40.70;;;;;;8363540;28;19920;-47
2021/11/10 01:47:52;;;;;;;;;;;16.10;40.70;;;;;;8363349;28;20333;-48
2021/11/10 01:51:54;;;;;;;;;;;16.10;40.70;;;;;;8363759;28;19913;-49
2021/11/10 01:55:54;;;;;;;;;;;16.00;40.60;;;;;;8363442;28;20012;-51
2021/11/10 02:00:01;;;;;;;;;;;16.00;40.60;;;;;;8363057;28;19917;-49
2021/11/10 02:04:02;;;;;;;;;;;16.00;40.60;;;;;;8362714;28;19925;-49
2021/11/10 02:08:02;;;;;;;;;;;16.00;40.70;;;;;;8339313;28;19923;-51
2021/11/10 02:12:03;;;;;;;;;;;16.00;40.70;;;;;;8369726;28;19913;-54
2021/11/10 02:16:03;;;;;;;;;;;16.00;40.70;;;;;;8370126;28;19916;-50
2021/11/10 02:20:05;;;;;;;;;;;16.00;40.70;;;;;;8369564;28;19917;-48
2021/11/10 02:24:06;;;;;;;;;;;16.00;40.70;;;;;;8368829;28;20400;-47
2021/11/10 02:28:06;;;;;;;;;;;16.00;40.60;;;;;;8369454;28;20015;-48
2021/11/10 02:32:11;;;;;;;;;;;16.00;40.60;;;;;;8369443;28;20373;-49
2021/11/10 02:36:12;;;;;;;;;;;16.00;40.60;;;;;;8368592;28;19924;-48
2021/11/10 02:40:12;;;;;;;;;;;16.00;40.60;;;;;;8369343;28;19916;-48
2021/11/10 02:44:15;;;;;;;;;;;16.00;40.50;;;;;;8369673;28;19932;-47
2021/11/10 02:48:16;;;;;;;;;;;16.00;40.50;;;;;;8368943;28;20020;-48
2021/11/10 02:52:18;;;;;;;;;;;16.00;40.50;;;;;;8369086;28;19917;-47
2021/11/10 02:56:18;;;;;;;;;;;16.00;40.50;;;;;;8368674;28;19924;-49
2021/11/10 03:00:19;;;;;;;;;;;16.00;40.50;;;;;;8368456;28;20378;-50
2021/11/10 03:04:30;;;;;;;;;;;16.00;40.50;;;;;;8368121;28;19925;-48
2021/11/10 03:08:30;;;;;;;;;;;16.00;40.50;;;;;;8367584;28;19917;-49
2021/11/10 03:12:31;;;;;;;;;;;16.00;40.50;;;;;;8368156;28;19913;-48
2021/11/10 03:16:31;;;;;;;;;;;16.00;40.40;;;;;;8368047;28;19917;-48
2021/11/10 03:20:32;;;;;;;;;;;16.00;40.40;;;;;;8367274;28;19923;-49
2021/11/10 03:24:33;;;;;;;;;;;16.00;40.40;;;;;;8367624;28;19925;-48
2021/11/10 03:28:33;;;;;;;;;;;16.00;40.40;;;;;;8367333;28;19921;-48
2021/11/10 03:32:33;;;;;;;;;;;16.00;40.40;;;;;;8367119;28;19920;-48
2021/11/10 03:36:34;;;;;;;;;;;16.00;40.40;;;;;;8367788;28;19917;-50
2021/11/10 03:40:35;;;;;;;;;;;16.00;40.40;;;;;;8367545;28;19993;-50
2021/11/10 03:44:35;;;;;;;;;;;16.00;40.40;;;;;;8366637;28;19929;-50
2021/11/10 03:48:36;;;;;;;;;;;16.00;40.40;;;;;;8366805;28;19917;-49
2021/11/10 03:52:36;;;;;;;;;;;16.00;40.50;;;;;;8367156;28;20432;-49
2021/11/10 03:56:37;;;;;;;;;;;16.00;40.50;;;;;;8365995;28;19921;-48
2021/11/10 04:00:37;;;;;;;;;;;15.90;40.50;;;;;;8366799;28;19917;-51
2021/11/10 04:04:38;;;;;;;;;;;15.90;40.50;;;;;;8366225;28;20393;-48
2021/11/10 04:08:38;;;;;;;;;;;15.90;40.50;;;;;;8365912;28;19917;-48
2021/11/10 04:12:39;;;;;;;;;;;15.90;40.50;;;;;;8366327;28;20385;-49
2021/11/10 04:16:39;;;;;;;;;;;15.90;40.50;;;;;;8365843;28;19917;-48
2021/11/10 04:20:40;;;;;;;;;;;15.90;41.00;;;;;;8365451;28;19956;-48
2021/11/10 04:24:40;;;;;;;;;;;15.90;40.50;;;;;;8365811;28;19925;-49
2021/11/10 04:28:41;;;;;;;;;;;15.90;40.50;;;;;;8365338;28;19971;-48
2021/11/10 04:32:42;;;;;;;;;;;15.90;40.50;;;;;;8365209;28;19913;-48
2021/11/10 04:36:42;;;;;;;;;;;15.90;40.40;;;;;;8365373;28;19921;-47
2021/11/10 04:40:43;;;;;;;;;;;15.90;40.40;;;;;;8365515;28;19916;-49
2021/11/10 04:44:50;;;;;;;;;;;15.90;40.40;;;;;;8364697;28;19932;-50
2021/11/10 04:48:51;;;;;;;;;;;15.90;40.40;;;;;;8365266;28;19943;-49
2021/11/10 04:52:52;;;;;;;;;;;15.90;40.40;;;;;;8364961;28;19913;-52
2021/11/10 04:56:52;;;;;;;;;;;15.90;40.30;;;;;;8364157;28;19921;-49
2021/11/10 05:00:53;;;;;;;;;;;15.90;40.30;;;;;;8364517;28;19917;-49
2021/11/10 05:04:54;;;;;;;;;;;15.90;40.30;;;;;;8364376;28;19921;-49
2021/11/10 05:08:54;;;;;;;;;;;15.90;40.30;;;;;;8350763;28;19924;-48
2021/11/10 05:12:55;;;;;;;;;;;15.90;40.30;;;;;;8364531;28;19912;-49
2021/11/10 05:16:55;;;;;;;;;;;15.90;40.30;;;;;;8364205;28;20378;-48
2021/11/10 05:20:56;;;;;;;;;;;15.90;40.30;;;;;;8363577;28;19963;-49
2021/11/10 05:24:56;;;;;;;;;;;15.90;40.30;;;;;;8363871;28;20432;-48
2021/11/10 05:28:57;;;;;;;;;;;15.90;40.40;;;;;;8364037;28;19917;-53
2021/11/10 05:32:57;;;;;;;;;;;15.90;40.40;;;;;;8363553;28;19916;-48
2021/11/10 05:36:58;;;;;;;;;;;15.80;40.40;;;;;;8363703;28;20022;-49
2021/11/10 05:40:58;;;;;;;;;;;15.80;40.40;;;;;;8362787;28;19917;-52
2021/11/10 05:44:59;;;;;;;;;;;15.80;40.40;;;;;;8363076;28;20297;-49
2021/11/10 05:48:59;;;;;;;;;;;15.80;40.40;;;;;;8363462;28;19952;-49
2021/11/10 05:53:00;;;;;;;;;;;15.80;40.40;;;;;;8363895;28;19917;-49
2021/11/10 05:57:01;;;;;;;;;;;15.80;40.30;;;;;;8362964;28;20297;-48
2021/11/10 06:01:02;;;;;;;;;;;15.80;40.40;;;;;;8363325;28;19917;-49
2021/11/10 06:05:02;;;;;;;;;;;15.80;40.30;;;;;;8363181;28;19970;-48
2021/11/10 06:09:03;;;;;;;;;;;15.80;40.30;;;;;;8362842;28;19913;-50
2021/11/10 06:13:03;;;;;;;;;;;15.80;40.40;;;;;;8363688;28;19913;-49
2021/11/10 06:17:04;;;;;;;;;;;15.70;40.30;;;;;;8363076;28;20453;-47
2021/11/10 06:21:05;;;;;;;;;;;15.70;40.30;;;;;;8362659;28;20451;-49
2021/11/10 06:25:05;;;;;;;;;;;15.80;40.40;;;;;;8362846;28;20279;-49
2021/11/10 06:29:06;;;;;;;;;;;15.70;40.40;;;;;;8363161;28;19913;-49
2021/11/10 06:33:07;;;;;;;;;;;15.70;40.30;;;;;;8362819;28;19916;-51
2021/11/10 06:37:07;;;;;;;;;;;15.70;40.40;;;;;;8362623;28;19917;-49
2021/11/10 06:41:08;;;;;;;;;;;15.70;40.40;;;;;;8362783;28;19917;-47
2021/11/10 06:45:09;;;;;;;;;;;15.70;40.30;;;;;;8362058;28;19929;-48
2021/11/10 06:49:09;;;;;;;;;;;15.70;40.30;;;;;;8363067;28;19923;-53
2021/11/10 06:53:10;;;;;;;;;;;15.70;40.30;;;;;;8364491;28;19921;-49
2021/11/10 06:57:10;;;;;;;;;;;15.70;40.40;;;;;;8367878;28;20004;-50
2021/11/10 07:01:11;;;;;;;;;;;15.70;40.40;;;;;;8368442;28;20003;-48
2021/11/10 07:05:11;;;;;;;;;;;15.70;40.40;;;;;;8368174;28;19925;-47
2021/11/10 07:09:12;;;;;;;;;;;15.70;40.40;;;;;;8367671;28;19913;-50
2021/11/10 07:13:12;;;;;;;;;;;15.70;40.40;;;;;;8368088;28;19917;-49
2021/11/10 07:17:13;;;;;;;;;;;15.70;40.40;;;;;;8367691;28;19998;-49
2021/11/10 07:21:13;;;;;;;;;;;15.70;40.30;;;;;;8367763;28;20394;-48
2021/11/10 07:25:14;;;;;;;;;;;15.70;40.40;;;;;;8367710;28;19921;-48
2021/11/10 07:29:14;;;;;;;;;;;15.70;40.40;;;;;;8367763;28;19917;-49
2021/11/10 07:33:15;;;;;;;;;;;15.70;40.30;;;;;;8366949;28;19928;-49
2021/11/10 07:37:15;;;;;;;;;;;15.70;40.30;;;;;;8367289;28;19921;-46
2021/11/10 07:41:18;;;;;;;;;;;15.80;40.30;;;;;;8367358;28;19920;-48
2021/11/10 07:45:31;;;;;;;;;;;15.80;40.30;;;;;;8367102;28;19924;-48
2021/11/10 07:49:32;;;;;;;;;;;15.80;40.20;;;;;;8367261;28;19920;-49
2021/11/10 07:53:33;;;;;;;;;;;15.80;40.20;;;;;;8366320;28;19964;-49
2021/11/10 07:57:35;;;;;;;;;;;15.80;40.20;;;;;;8366443;28;20043;-49
2021/11/10 08:01:36;;;;;;;;;;;15.80;40.10;;;;;;8366592;28;20012;-49
2021/11/10 08:05:36;;;;;;;;;;;15.80;40.20;;;;;;8358364;28;19929;-48
2021/11/10 08:09:37;;;;;;;;;;;15.80;40.10;;;;;;8366379;28;19913;-48
2021/11/10 08:13:37;;;;;;;;;;;15.80;40.10;;;;;;8366064;28;20262;-49
2021/11/10 08:17:38;;;;;;;;;;;15.80;40.10;;;;;;8365466;28;20024;-48
2021/11/10 08:21:40;;;;;;;;;;;15.80;40.10;;;;;;8365883;28;19982;-47
2021/11/10 08:25:41;;;;;;;;;;;15.80;40.20;;;;;;8365685;28;19920;-47
2021/11/10 08:29:41;;;;;;;;;;;15.80;40.20;;;;;;8365214;28;20434;-48
2021/11/10 08:33:42;;;;;;;;;;;15.80;40.20;;;;;;8365388;28;20078;-49
2021/11/10 08:37:43;;;;;;;;;;;15.80;40.20;;;;;;8365297;28;19971;-47
2021/11/10 08:41:47;;;;;;;;;;;15.80;40.20;;;;;;8364812;28;19977;-47
2021/11/10 08:45:49;;;;;;;;;;;15.80;40.30;;;;;;8365004;28;20003;-48
2021/11/10 08:49:49;;;;;;;;;;;15.80;40.30;;;;;;8365452;28;19921;-48
2021/11/10 08:53:50;;;;;;;;;;;15.80;40.30;;;;;;8364389;28;19924;-47
2021/11/10 08:57:51;;;;;;;;;;;15.80;40.30;;;;;;8365053;28;19950;-48
2021/11/10 09:01:53;;;;;;;;;;;15.80;40.30;;;;;;8364796;28;19923;-47
2021/11/10 09:05:54;;;;;;;;;;;15.80;40.30;;;;;;8364085;28;19931;-47
2021/11/10 09:09:54;;;;;;;;;;;15.80;40.30;;;;;;8364535;28;19924;-48
2021/11/10 09:13:55;;;;;;;;;;;15.80;40.30;;;;;;8364507;28;20262;-48
2021/11/10 09:17:55;;;;;;;;;;;15.80;40.30;;;;;;8363730;28;20393;-48
2021/11/10 09:21:55;;;;;;;;;;;15.80;40.40;;;;;;8364034;28;19917;-47
2021/11/10 09:25:56;;;;;;;;;;;15.80;40.40;;;;;;8364252;28;19921;-47
2021/11/10 09:29:56;;;;;;;;;;;15.80;40.40;;;;;;8363814;28;19921;-48
2021/11/10 09:34:02;;;;;;;;;;;15.80;40.40;;;;;;8363925;28;19916;-47
2021/11/10 09:38:03;;;;;;;;;;;15.80;40.30;;;;;;8365965;28;19913;-48
2021/11/10 09:42:04;;;;;;;;;;;15.80;40.40;;;;;;8363344;28;19951;-48
2021/11/10 09:46:05;;;;;;;;;;;15.80;40.40;;;;;;8364028;28;19921;-47
2021/11/10 09:50:07;;;;;;;;;;;15.80;40.30;;;;;;8363881;28;19931;-48
2021/11/10 09:54:09;;;;;;;;;;;15.80;40.40;;;;;;8363048;28;19924;-47
2021/11/10 09:58:10;;;;;;;;;;;15.90;40.40;;;;;;8363747;28;19960;-48
2021/11/10 10:02:12;;;;;;;;;;;15.90;40.40;;;;;;8363598;28;19920;-49
2021/11/10 10:06:13;;;;;;;;;;;15.90;40.40;;;;;;8362879;28;19925;-48
2021/11/10 10:10:14;;;;;;;;;;;15.80;40.40;;;;;;8363827;28;19913;-48
2021/11/10 10:14:14;;;;;;;;;;;15.90;40.40;;;;;;8363283;28;19939;-48
2021/11/10 10:18:16;;;;;;;;;;;15.80;40.40;;;;;;8362844;28;19921;-48
2021/11/10 10:22:18;;;;;;;;;;;15.90;40.40;;;;;;8363263;28;20290;-47
2021/11/10 10:26:22;;;;;;;;;;;15.90;40.50;;;;;;8362598;28;19960;-47
2021/11/10 10:30:26;;;;;;;;;;;15.90;40.50;;;;;;8369047;28;19913;-48
2021/11/10 10:34:27;;;;;;;;;;;15.90;40.50;;;;;;8369658;28;19917;-49
2021/11/10 10:38:29;;;;;;;;;;;15.90;40.50;;;;;;8368691;28;19924;-48
2021/11/10 10:42:35;;;;;;;;;;;15.90;40.50;;;;;;8368949;28;19943;-49
2021/11/10 10:46:40;;;;;;;;;;;15.90;40.50;;;;;;8369034;28;19932;-48
2021/11/10 10:50:48;;;;;;;;;;;15.90;40.50;;;;;;8368713;28;19999;-48
2021/11/10 10:54:49;;;;;;;;;;;15.90;40.50;;;;;;8368393;28;20340;-47
2021/11/10 10:58:52;;;;;;;;;;;15.90;40.50;;;;;;8368434;28;20015;-51
2021/11/10 11:02:52;;;;;;;;;;;15.90;40.40;;;;;;8367922;28;20259;-48
2021/11/10 11:06:56;;;;;;;;;;;15.90;40.40;;;;;;8368455;28;19960;-49
2021/11/10 11:11:00;;;;;;;;;;;16.00;40.50;;;;;;8335557;28;19914;-50
2021/11/10 11:19:24;;;;;;;;;;;16.00;40.40;;;;;;8366892;28;19917;-48
2021/11/10 11:23:40;;;;;;;;;;;16.10;40.30;;;;;;8367347;28;20000;-48
2021/11/10 11:27:51;;;;;;;;;;;16.10;40.40;;;;;;8367626;28;20324;-48
2021/11/10 11:31:52;;;;;;;;;;;16.10;40.30;;;;;;8367725;28;19925;-48
2021/11/10 11:35:54;;;;;;;;;;;16.10;40.40;;;;;;8367306;28;19995;-47
2021/11/10 11:39:56;;;;;;;;;;;16.10;40.40;;;;;;8367351;28;19927;-48
2021/11/10 11:43:56;;;;;;;;;;;16.10;40.30;;;;;;8367339;28;19917;-48
2021/11/10 11:48:01;;;;;;;;;;;16.10;40.40;;;;;;8366622;28;20008;-48
2021/11/10 11:52:01;;;;;;;;;;;16.10;40.40;;;;;;8366755;28;20016;-49
2021/11/10 11:56:03;;;;;;;;;;;16.10;40.40;;;;;;8367520;28;19920;-47
2021/11/10 12:00:05;;;;;;;;;;;16.10;40.40;;;;;;8366180;28;19917;-47
2021/11/10 12:04:09;;;;;;;;;;;16.10;40.40;;;;;;8366292;28;19928;-51
2021/11/10 12:08:10;;;;;;;;;;;16.10;40.50;;;;;;8366389;28;19960;-50
2021/11/10 12:12:11;;;;;;;;;;;16.10;40.50;;;;;;8365924;28;19921;-48
2021/11/10 12:16:15;;;;;;;;;;;16.10;40.60;;;;;;8366514;28;20292;-49
2021/11/10 12:20:15;;;;;;;;;;;16.10;40.60;;;;;;8365999;28;20381;-48
2021/11/10 12:24:17;;;;;;;;;;;16.10;40.60;;;;;;8365470;28;19967;-51
2021/11/10 12:28:36;;;;;;;;;;;16.10;40.60;;;;;;8365552;28;20429;-49
2021/11/10 12:32:37;;;;;;;;;;;16.10;40.60;;;;;;8365124;28;19979;-47
2021/11/10 12:36:53;;;;;;;;;;;16.10;40.60;;;;;;8365839;28;19912;-48
2021/11/10 12:40:58;;;;;;;;;;;16.10;40.70;;;;;;8365353;28;19958;-47
2021/11/10 12:44:59;;;;;;;;;;;16.10;40.60;;;;;;8364613;28;19925;-48
2021/11/10 12:49:13;;;;;;;;;;;16.10;40.70;;;;;;8365070;28;19921;-47
2021/11/10 12:53:15;;;;;;;;;;;16.10;40.60;;;;;;8364550;28;19917;-48
2021/11/10 12:57:31;;;;;;;;;;;16.10;40.70;;;;;;8363675;28;20023;-48
2021/11/10 13:01:33;;;;;;;;;;;16.10;40.70;;;;;;8364980;28;20389;-50
2021/11/10 13:05:38;;;;;;;;;;;16.10;40.70;;;;;;8364088;28;19932;-50
2021/11/10 13:09:39;;;;;;;;;;;16.10;40.70;;;;;;8364826;28;19924;-48
2021/11/10 13:13:39;;;;;;;;;;;16.10;40.70;;;;;;8364609;28;19927;-48
2021/11/10 13:17:39;;;;;;;;;;;16.10;40.70;;;;;;8363951;28;19967;-50
2021/11/10 13:21:50;;;;;;;;;;;16.10;40.70;;;;;;8364993;28;19927;-52
2021/11/10 13:25:51;;;;;;;;;;;16.10;40.80;;;;;;8364271;28;20004;-48
2021/11/10 13:29:51;;;;;;;;;;;16.10;40.70;;;;;;8363726;28;19983;-49
2021/11/10 13:33:52;;;;;;;;;;;16.10;40.70;;;;;;8364066;28;19924;-49
2021/11/10 13:37:53;;;;;;;;;;;16.10;40.70;;;;;;8363909;28;19924;-49
2021/11/10 13:41:56;;;;;;;;;;;16.10;40.70;;;;;;8363570;28;20439;-48
2021/11/10 13:45:56;;;;;;;;;;;16.10;40.80;;;;;;8363736;28;20018;-49
2021/11/10 13:49:56;;;;;;;;;;;16.10;40.80;;;;;;8363869;28;19917;-50
2021/11/10 13:54:16;;;;;;;;;;;16.10;40.80;;;;;;8363051;28;20370;-50
2021/11/10 13:58:17;;;;;;;;;;;16.10;40.80;;;;;;8363696;28;20301;-48
2021/11/10 14:02:20;;;;;;;;;;;16.10;40.80;;;;;;8364084;28;19987;-52
2021/11/10 14:06:21;;;;;;;;;;;16.10;40.80;;;;;;8369953;28;19990;-53
2021/11/10 14:10:26;;;;;;;;;;;16.10;40.80;;;;;;8357266;28;19918;-54
2021/11/10 14:14:32;;;;;;;;;;;16.10;40.80;;;;;;8355084;28;19924;-52
2021/11/10 14:18:33;;;;;;;;;;;16.10;40.80;;;;;;8369876;28;20449;-49
2021/11/10 14:22:33;;;;;;;;;;;16.10;40.80;;;;;;8369855;28;19913;-53
2021/11/10 14:26:34;;;;;;;;;;;16.10;40.80;;;;;;8369083;28;19925;-53
2021/11/10 14:30:45;;;;;;;;;;;16.10;40.80;;;;;;8369923;28;19925;-49
2021/11/10 14:34:46;;;;;;;;;;;16.10;40.90;;;;;;8369346;28;19917;-50
2021/11/10 14:38:49;;;;;;;;;;;16.10;40.80;;;;;;8369097;28;19917;-52
2021/11/10 14:42:49;;;;;;;;;;;16.10;40.80;;;;;;8369425;28;19971;-49
2021/11/10 14:46:50;;;;;;;;;;;16.10;40.90;;;;;;8369028;28;19925;-53
2021/11/10 14:50:57;;;;;;;;;;;16.10;40.90;;;;;;8368283;28;20281;-52
2021/11/10 14:55:08;;;;;;;;;;;16.10;40.90;;;;;;8368160;28;19921;-50
2021/11/10 14:59:09;;;;;;;;;;;16.10;40.90;;;;;;8366681;28;19963;-53
2021/11/10 15:03:16;;;;;;;;;;;16.10;40.90;;;;;;8365898;28;19951;-51
2021/11/10 15:07:22;;;;;;;;;;;16.10;40.90;;;;;;8366559;28;20282;-51
2021/11/10 15:11:23;;;;;;;;;;;16.10;40.90;;;;;;8365662;28;19967;-50
2021/11/10 15:15:28;;;;;;;;;;;16.10;40.90;;;;;;8365847;28;20285;-52
2021/11/10 15:19:29;;;;;;;;;;;16.10;41.00;;;;;;8366127;28;19916;-53
2021/11/10 15:23:29;;;;;;;;;;;16.10;41.00;;;;;;8363748;28;20392;-50
2021/11/10 15:27:30;;;;;;;;;;;16.10;41.00;;;;;;8366009;28;19990;-52
2021/11/10 15:31:31;;;;;;;;;;;16.10;41.00;;;;;;8365652;28;19921;-51
2021/11/10 15:35:36;;;;;;;;;;;16.10;41.00;;;;;;8365143;28;20383;-52
2021/11/10 15:39:37;;;;;;;;;;;16.00;41.00;;;;;;8364430;28;19947;-54
2021/11/10 15:43:37;;;;;;;;;;;16.10;41.60;;;;;;8365937;28;19960;-54
2021/11/10 15:47:40;;;;;;;;;;;16.10;41.00;;;;;;8365011;28;19935;-49
2021/11/10 15:51:40;;;;;;;;;;;16.10;41.10;;;;;;8365524;28;19927;-51
2021/11/10 15:55:41;;;;;;;;;;;16.10;41.10;;;;;;8302759;28;1781899;-49
2021/11/10 15:59:41;;;;;;;;;;;16.10;41.10;;;;;;8366253;28;19916;-54
2021/11/10 16:03:44;;;;;;;;;;;16.10;41.10;;;;;;8366780;28;19924;-54
2021/11/10 16:07:45;;;;;;;;;;;16.10;41.10;;;;;;8365282;28;20015;-49
2021/11/10 16:11:45;;;;;;;;;;;16.10;41.10;;;;;;8366107;28;19917;-49
2021/11/10 16:15:46;;;;;;;;;;;16.10;41.10;;;;;;8366426;28;20484;-49
2021/11/10 16:19:47;;;;;;;;;;;16.10;41.10;;;;;;8365928;28;19923;-52
2021/11/10 16:23:47;;;;;;;;;;;16.10;41.10;;;;;;8365426;28;19955;-49
2021/11/10 16:28:13;;;;;;;;;;;16.00;41.10;;;;;;8365398;28;20310;-50
2021/11/10 16:36:24;;;;;;;;;;;16.00;41.10;;;;;;8365388;28;20385;-50
2021/11/10 16:40:24;;;;;;;;;;;16.00;41.10;;;;;;8365341;28;19917;-53
2021/11/10 16:44:25;;;;;;;;;;;16.00;41.10;;;;;;8364649;28;20421;-52
2021/11/10 16:48:26;;;;;;;;;;;16.00;41.10;;;;;;8365069;28;19913;-53
2021/11/10 16:52:27;;;;;;;;;;;16.00;41.20;;;;;;8365294;28;19966;-53
2021/11/10 16:56:27;;;;;;;;;;;16.00;41.10;;;;;;8365014;28;20349;-54
2021/11/10 17:00:28;;;;;;;;;;;16.00;41.20;;;;;;8364808;28;19917;-51
2021/11/10 17:04:28;;;;;;;;;;;16.00;41.20;;;;;;8353218;28;19932;-51
2021/11/10 17:08:29;;;;;;;;;;;16.00;41.20;;;;;;8363943;28;19917;-52
2021/11/10 17:12:29;;;;;;;;;;;16.00;41.20;;;;;;8365124;28;20312;-50
2021/11/10 17:16:30;;;;;;;;;;;16.00;41.20;;;;;;8364455;28;20038;-52
2021/11/10 17:20:31;;;;;;;;;;;16.00;41.20;;;;;;8364095;28;19917;-50
2021/11/10 17:24:31;;;;;;;;;;;16.00;41.20;;;;;;8364386;28;19924;-52
2021/11/10 17:28:32;;;;;;;;;;;16.00;41.20;;;;;;8364061;28;19920;-49
2021/11/10 17:32:33;;;;;;;;;;;16.00;41.20;;;;;;8363743;28;20366;-49
2021/11/10 17:36:33;;;;;;;;;;;16.00;41.20;;;;;;8364096;28;20355;-49
2021/11/10 17:40:34;;;;;;;;;;;16.00;41.20;;;;;;8363805;28;19920;-50
2021/11/10 17:44:34;;;;;;;;;;;16.00;41.20;;;;;;8363395;28;19921;-50
2021/11/10 17:48:35;;;;;;;;;;;16.10;41.20;;;;;;8363890;28;19916;-48
2021/11/10 17:52:36;;;;;;;;;;;16.10;41.10;;;;;;8363891;28;19921;-49
2021/11/10 17:56:36;;;;;;;;;;;16.10;41.10;;;;;;8363684;28;19967;-48
2021/11/10 18:00:37;;;;;;;;;;;16.20;41.10;;;;;;8363795;28;19959;-49
2021/11/10 18:04:37;;;;;;;;;;;16.10;41.00;;;;;;8364349;28;19979;-48
2021/11/10 18:08:38;;;;;;;;;;;16.20;41.00;;;;;;8364682;28;20036;-49
2021/11/10 18:12:39;;;;;;;;;;;16.20;40.90;;;;;;8364556;28;19917;-48
2021/11/10 18:16:39;;;;;;;;;;;16.20;40.90;;;;;;8364864;28;20309;-49
2021/11/10 18:20:40;;;;;;;;;;;16.20;40.90;;;;;;8363989;28;20325;-51
2021/11/10 18:24:40;;;;;;;;;;;16.20;40.90;;;;;;8363305;28;20456;-49
2021/11/10 18:28:41;;;;;;;;;;;16.20;40.90;;;;;;8363155;28;19912;-47
2021/11/10 18:32:42;;;;;;;;;;;16.20;40.90;;;;;;8362423;28;20297;-48
2021/11/10 18:36:42;;;;;;;;;;;16.20;40.90;;;;;;8363041;28;19917;-48
2021/11/10 18:40:43;;;;;;;;;;;16.20;40.90;;;;;;8362871;28;19917;-49
2021/11/10 18:44:44;;;;;;;;;;;16.20;40.90;;;;;;8362395;28;19925;-49
2021/11/10 18:48:46;;;;;;;;;;;16.10;40.90;;;;;;8363946;28;20329;-47
2021/11/10 18:52:46;;;;;;;;;;;16.10;40.90;;;;;;8368691;28;19917;-48
2021/11/10 18:56:56;;;;;;;;;;;16.20;41.00;;;;;;8368146;28;20373;-49
2021/11/10 19:00:57;;;;;;;;;;;16.10;41.00;;;;;;8373714;28;19924;-49
2021/11/10 19:05:05;;;;;;;;;;;16.10;41.00;;;;;;8368550;28;19921;-50
2021/11/10 19:09:29;;;;;;;;;;;16.10;41.10;;;;;;8368718;28;19923;-48
2021/11/10 19:13:49;;;;;;;;;;;16.10;41.00;;;;;;8368444;28;19920;-52
2021/11/10 19:21:51;;;;;;;;;;;16.10;41.10;;;;;;8368242;28;19920;-50
2021/11/10 19:25:51;;;;;;;;;;;16.10;41.10;;;;;;8367536;28;19963;-51
2021/11/10 19:29:52;;;;;;;;;;;16.10;41.10;;;;;;8367289;28;19924;-49
2021/11/10 19:33:54;;;;;;;;;;;16.10;41.10;;;;;;8367628;28;20058;-48
2021/11/10 19:37:54;;;;;;;;;;;16.10;41.10;;;;;;8367334;28;19917;-49
2021/11/10 19:41:55;;;;;;;;;;;16.10;41.10;;;;;;8366980;28;19921;-49
2021/11/10 19:45:56;;;;;;;;;;;16.00;41.00;;;;;;8367009;28;19925;-49
2021/11/10 19:49:56;;;;;;;;;;;16.10;41.10;;;;;;8367761;28;19917;-47
2021/11/10 19:53:56;;;;;;;;;;;16.00;41.10;;;;;;8366633;28;19927;-48
2021/11/10 19:58:01;;;;;;;;;;;16.00;41.10;;;;;;8367037;28;19921;-48
2021/11/10 20:02:01;;;;;;;;;;;16.00;41.10;;;;;;8365535;28;20328;-49
2021/11/10 20:06:03;;;;;;;;;;;16.00;41.10;;;;;;8364061;28;19931;-49
2021/11/10 20:10:04;;;;;;;;;;;16.00;41.10;;;;;;8337351;28;19919;-49
2021/11/10 20:14:09;;;;;;;;;;;16.00;41.10;;;;;;8366307;28;19986;-47
2021/11/10 20:18:09;;;;;;;;;;;16.00;41.10;;;;;;8365801;28;20019;-48
2021/11/10 20:22:10;;;;;;;;;;;16.00;41.10;;;;;;8366359;28;19920;-50
2021/11/10 20:26:11;;;;;;;;;;;16.00;41.10;;;;;;8365999;28;19927;-51
2021/11/10 20:30:12;;;;;;;;;;;16.00;41.10;;;;;;8365687;28;19916;-51
2021/11/10 20:34:13;;;;;;;;;;;16.00;41.10;;;;;;8366060;28;19920;-52
2021/11/10 20:38:14;;;;;;;;;;;16.00;41.10;;;;;;8365716;28;19917;-52
2021/11/10 20:42:14;;;;;;;;;;;16.00;41.10;;;;;;8364856;28;19968;-53
2021/11/10 20:46:15;;;;;;;;;;;16.00;41.10;;;;;;8365392;28;19925;-47
2021/11/10 20:50:16;;;;;;;;;;;16.00;41.10;;;;;;8365113;28;19973;-50
2021/11/10 20:54:17;;;;;;;;;;;16.00;41.10;;;;;;8364765;28;19920;-48
2021/11/10 20:58:18;;;;;;;;;;;16.00;41.10;;;;;;8365076;28;20321;-53
2021/11/10 21:02:19;;;;;;;;;;;16.00;41.10;;;;;;8364547;28;19917;-46
2021/11/10 21:06:19;;;;;;;;;;;16.00;41.10;;;;;;8364855;28;19925;-49
2021/11/10 21:10:20;;;;;;;;;;;16.00;41.00;;;;;;8364493;28;19925;-51
2021/11/10 21:14:21;;;;;;;;;;;16.00;41.10;;;;;;8364004;28;19952;-51
2021/11/10 21:18:21;;;;;;;;;;;16.00;41.00;;;;;;8364482;28;20301;-49
2021/11/10 21:22:22;;;;;;;;;;;16.00;41.00;;;;;;8364224;28;19963;-49
2021/11/10 21:26:22;;;;;;;;;;;16.00;41.00;;;;;;8363336;28;20019;-50
2021/11/10 21:30:23;;;;;;;;;;;16.00;41.00;;;;;;8364216;28;19966;-49
2021/11/10 21:34:24;;;;;;;;;;;15.90;41.00;;;;;;8364214;28;19913;-49
2021/11/10 21:38:25;;;;;;;;;;;15.90;40.90;;;;;;8363187;28;19917;-53
2021/11/10 21:42:26;;;;;;;;;;;16.00;41.00;;;;;;8363751;28;19924;-50
2021/11/10 21:46:27;;;;;;;;;;;15.90;40.90;;;;;;8363402;28;20274;-48
2021/11/10 21:50:27;;;;;;;;;;;15.90;40.90;;;;;;8362863;28;19916;-49
2021/11/10 21:54:28;;;;;;;;;;;15.90;40.90;;;;;;8363831;28;19925;-49
2021/11/10 21:58:29;;;;;;;;;;;15.90;40.90;;;;;;8364269;28;19917;-51
2021/11/10 22:02:30;;;;;;;;;;;15.90;40.90;;;;;;8363072;28;19917;-49
2021/11/10 22:06:30;;;;;;;;;;;15.90;40.90;;;;;;8363754;28;19937;-51
2021/11/10 22:10:31;;;;;;;;;;;15.90;40.90;;;;;;8363278;28;19917;-47
2021/11/10 22:14:31;;;;;;;;;;;15.90;41.00;;;;;;8363115;28;19919;-53
2021/11/10 22:18:32;;;;;;;;;;;15.90;41.00;;;;;;8363280;28;19971;-50
2021/11/10 22:22:33;;;;;;;;;;;15.90;40.90;;;;;;8363276;28;19917;-49
2021/11/10 22:26:33;;;;;;;;;;;15.90;40.90;;;;;;8368789;28;19931;-49
2021/11/10 22:30:34;;;;;;;;;;;15.90;40.90;;;;;;8369510;28;19916;-52
2021/11/10 22:34:34;;;;;;;;;;;15.90;41.00;;;;;;8369766;28;19936;-49
2021/11/10 22:38:35;;;;;;;;;;;15.90;40.90;;;;;;8369312;28;19927;-53
2021/11/10 22:42:36;;;;;;;;;;;15.90;40.90;;;;;;8369501;28;19924;-49
2021/11/10 22:46:36;;;;;;;;;;;15.90;40.90;;;;;;8369212;28;19925;-54
2021/11/10 22:50:36;;;;;;;;;;;15.90;41.00;;;;;;8368988;28;19920;-50
2021/11/10 22:54:37;;;;;;;;;;;15.90;41.40;;;;;;8368662;28;19921;-54
2021/11/10 22:58:37;;;;;;;;;;;15.90;40.90;;;;;;8368926;28;20377;-50
2021/11/10 23:02:38;;;;;;;;;;;15.90;40.90;;;;;;8367689;28;19929;-48
2021/11/10 23:06:38;;;;;;;;;;;15.90;40.90;;;;;;8368316;28;20446;-49
2021/11/10 23:10:39;;;;;;;;;;;15.90;40.90;;;;;;8346697;28;19913;-49
2021/11/10 23:14:39;;;;;;;;;;;15.90;40.90;;;;;;8366246;28;20389;-49
2021/11/10 23:18:40;;;;;;;;;;;15.90;40.90;;;;;;8367992;28;19991;-48
2021/11/10 23:22:41;;;;;;;;;;;15.90;40.80;;;;;;8367923;28;19928;-49
2021/11/10 23:26:42;;;;;;;;;;;15.90;40.80;;;;;;8367266;28;19924;-52
2021/11/10 23:30:43;;;;;;;;;;;15.90;40.80;;;;;;8367836;28;20030;-50
2021/11/10 23:34:44;;;;;;;;;;;15.90;40.90;;;;;;8367262;28;19924;-49
2021/11/10 23:38:44;;;;;;;;;;;15.90;40.80;;;;;;8366945;28;19916;-47